sensor_id;sensor_type;location;lat;lon;timestamp;P1;durP1;ratioP1;P2;durP2;ratioP2
48403;SDS011;34202;52.536;6.042;2023-06-10T00:02:22;8.10;;;3.50;;
48403;SDS011;34202;52.536;6.042;2023-06-10T00:07:23;8.10;;;3.80;;
48403;SDS011;34202;52.536;6.042;2023-06-10T00:12:23;8.70;;;3.90;;
48403;SDS011;34202;52.536;6.042;2023-06-10T00:17:23;6.50;;;4.20;;
48403;SDS011;34202;52.536;6.042;2023-06-10T00:22:25;6.20;;;3.50;;
48403;SDS011;34202;52.536;6.042;2023-06-10T00:27:29;7.50;;;4.20;;
48403;SDS011;34202;52.536;6.042;2023-06-10T00:32:35;12.20;;;4.70;;
48403;SDS011;34202;52.536;6.042;2023-06-10T00:37:36;8.80;;;3.80;;
48403;SDS011;34202;52.536;6.042;2023-06-10T00:42:37;12.80;;;4.10;;
48403;SDS011;34202;52.536;6.042;2023-06-10T00:47:38;12.10;;;4.50;;
48403;SDS011;34202;52.536;6.042;2023-06-10T00:52:39;5.80;;;3.80;;
48403;SDS011;34202;52.536;6.042;2023-06-10T00:57:39;7.60;;;4.00;;
48403;SDS011;34202;52.536;6.042;2023-06-10T01:02:40;10.00;;;4.60;;
48403;SDS011;34202;52.536;6.042;2023-06-10T01:18:07;9.30;;;4.60;;
48403;SDS011;34202;52.536;6.042;2023-06-10T01:23:10;7.60;;;4.60;;
48403;SDS011;34202;52.536;6.042;2023-06-10T01:28:17;7.10;;;4.10;;
48403;SDS011;34202;52.536;6.042;2023-06-10T01:33:24;6.30;;;3.90;;
48403;SDS011;34202;52.536;6.042;2023-06-10T01:38:28;8.80;;;4.60;;
48403;SDS011;34202;52.536;6.042;2023-06-10T01:43:33;7.90;;;4.10;;
48403;SDS011;34202;52.536;6.042;2023-06-10T01:48:34;7.80;;;4.20;;
48403;SDS011;34202;52.536;6.042;2023-06-10T01:53:35;8.00;;;4.50;;
48403;SDS011;34202;52.536;6.042;2023-06-10T01:58:35;8.40;;;4.70;;
48403;SDS011;34202;52.536;6.042;2023-06-10T02:03:36;8.50;;;4.30;;
48403;SDS011;34202;52.536;6.042;2023-06-10T02:08:36;10.10;;;4.00;;
48403;SDS011;34202;52.536;6.042;2023-06-10T02:13:37;6.30;;;4.60;;
48403;SDS011;34202;52.536;6.042;2023-06-10T02:18:39;13.20;;;5.20;;
48403;SDS011;34202;52.536;6.042;2023-06-10T02:23:42;10.90;;;4.20;;
48403;SDS011;34202;52.536;6.042;2023-06-10T02:28:43;10.60;;;4.20;;
48403;SDS011;34202;52.536;6.042;2023-06-10T02:33:44;10.60;;;4.80;;
48403;SDS011;34202;52.536;6.042;2023-06-10T02:38:44;7.70;;;4.60;;
48403;SDS011;34202;52.536;6.042;2023-06-10T02:43:45;8.00;;;4.50;;
48403;SDS011;34202;52.536;6.042;2023-06-10T02:48:45;8.90;;;4.30;;
48403;SDS011;34202;52.536;6.042;2023-06-10T02:53:46;8.50;;;5.10;;
48403;SDS011;34202;52.536;6.042;2023-06-10T02:58:46;5.80;;;4.80;;
48403;SDS011;34202;52.536;6.042;2023-06-10T03:03:48;6.90;;;4.80;;
48403;SDS011;34202;52.536;6.042;2023-06-10T03:08:50;9.20;;;4.70;;
48403;SDS011;34202;52.536;6.042;2023-06-10T03:13:50;11.60;;;5.40;;
48403;SDS011;34202;52.536;6.042;2023-06-10T03:18:51;9.50;;;5.00;;
48403;SDS011;34202;52.536;6.042;2023-06-10T03:23:52;7.30;;;4.80;;
48403;SDS011;34202;52.536;6.042;2023-06-10T03:28:52;7.10;;;4.60;;
48403;SDS011;34202;52.536;6.042;2023-06-10T03:33:53;11.90;;;5.20;;
48403;SDS011;34202;52.536;6.042;2023-06-10T03:38:53;6.70;;;4.60;;
48403;SDS011;34202;52.536;6.042;2023-06-10T03:43:56;10.30;;;5.30;;
48403;SDS011;34202;52.536;6.042;2023-06-10T03:48:57;10.00;;;5.60;;
48403;SDS011;34202;52.536;6.042;2023-06-10T03:54:00;8.20;;;4.50;;
48403;SDS011;34202;52.536;6.042;2023-06-10T03:59:00;10.60;;;5.30;;
48403;SDS011;34202;52.536;6.042;2023-06-10T04:04:01;12.30;;;5.60;;
48403;SDS011;34202;52.536;6.042;2023-06-10T04:09:02;7.10;;;4.90;;
48403;SDS011;34202;52.536;6.042;2023-06-10T04:14:03;15.10;;;5.30;;
48403;SDS011;34202;52.536;6.042;2023-06-10T04:19:03;9.60;;;6.30;;
48403;SDS011;34202;52.536;6.042;2023-06-10T04:24:04;12.20;;;5.50;;
48403;SDS011;34202;52.536;6.042;2023-06-10T04:29:04;10.30;;;5.10;;
48403;SDS011;34202;52.536;6.042;2023-06-10T04:34:05;11.50;;;7.10;;
48403;SDS011;34202;52.536;6.042;2023-06-10T04:39:07;8.30;;;4.90;;
48403;SDS011;34202;52.536;6.042;2023-06-10T04:44:08;7.90;;;5.30;;
48403;SDS011;34202;52.536;6.042;2023-06-10T04:49:08;14.80;;;5.10;;
48403;SDS011;34202;52.536;6.042;2023-06-10T04:54:09;8.90;;;5.00;;
48403;SDS011;34202;52.536;6.042;2023-06-10T04:59:09;7.60;;;5.80;;
48403;SDS011;34202;52.536;6.042;2023-06-10T05:04:09;14.50;;;6.20;;
48403;SDS011;34202;52.536;6.042;2023-06-10T05:09:10;8.50;;;5.40;;
48403;SDS011;34202;52.536;6.042;2023-06-10T05:14:10;8.10;;;5.60;;
48403;SDS011;34202;52.536;6.042;2023-06-10T05:19:10;6.90;;;3.30;;
48403;SDS011;34202;52.536;6.042;2023-06-10T05:24:11;8.20;;;5.30;;
48403;SDS011;34202;52.536;6.042;2023-06-10T05:29:12;9.10;;;5.90;;
48403;SDS011;34202;52.536;6.042;2023-06-10T05:34:12;7.80;;;4.40;;
48403;SDS011;34202;52.536;6.042;2023-06-10T05:39:12;8.50;;;5.80;;
48403;SDS011;34202;52.536;6.042;2023-06-10T05:44:13;10.90;;;4.90;;
48403;SDS011;34202;52.536;6.042;2023-06-10T05:49:13;14.00;;;6.00;;
48403;SDS011;34202;52.536;6.042;2023-06-10T05:54:13;12.10;;;5.20;;
48403;SDS011;34202;52.536;6.042;2023-06-10T05:59:14;8.70;;;5.80;;
48403;SDS011;34202;52.536;6.042;2023-06-10T06:04:14;9.80;;;4.70;;
48403;SDS011;34202;52.536;6.042;2023-06-10T06:09:15;12.30;;;5.30;;
48403;SDS011;34202;52.536;6.042;2023-06-10T06:14:15;8.90;;;5.00;;
48403;SDS011;34202;52.536;6.042;2023-06-10T06:19:15;12.30;;;5.40;;
48403;SDS011;34202;52.536;6.042;2023-06-10T06:24:16;17.20;;;6.00;;
48403;SDS011;34202;52.536;6.042;2023-06-10T06:29:16;8.00;;;5.30;;
48403;SDS011;34202;52.536;6.042;2023-06-10T06:34:17;9.10;;;5.50;;
48403;SDS011;34202;52.536;6.042;2023-06-10T06:39:17;7.90;;;4.90;;
48403;SDS011;34202;52.536;6.042;2023-06-10T06:44:17;10.70;;;5.20;;
48403;SDS011;34202;52.536;6.042;2023-06-10T06:49:18;6.10;;;4.60;;
48403;SDS011;34202;52.536;6.042;2023-06-10T06:54:18;11.40;;;4.80;;
48403;SDS011;34202;52.536;6.042;2023-06-10T06:59:18;7.80;;;4.50;;
48403;SDS011;34202;52.536;6.042;2023-06-10T07:04:19;9.50;;;5.00;;
48403;SDS011;34202;52.536;6.042;2023-06-10T07:09:21;7.90;;;4.90;;
48403;SDS011;34202;52.536;6.042;2023-06-10T07:14:22;5.70;;;3.80;;
48403;SDS011;34202;52.536;6.042;2023-06-10T07:19:22;7.10;;;4.00;;
48403;SDS011;34202;52.536;6.042;2023-06-10T07:24:22;8.30;;;4.70;;
48403;SDS011;34202;52.536;6.042;2023-06-10T07:29:23;9.40;;;4.90;;
48403;SDS011;34202;52.536;6.042;2023-06-10T07:34:23;6.80;;;4.20;;
48403;SDS011;34202;52.536;6.042;2023-06-10T07:39:24;6.70;;;3.50;;
48403;SDS011;34202;52.536;6.042;2023-06-10T07:44:24;8.00;;;4.20;;
48403;SDS011;34202;52.536;6.042;2023-06-10T07:49:24;9.20;;;3.70;;
48403;SDS011;34202;52.536;6.042;2023-06-10T07:54:25;8.60;;;3.90;;
48403;SDS011;34202;52.536;6.042;2023-06-10T07:59:25;7.10;;;3.80;;
48403;SDS011;34202;52.536;6.042;2023-06-10T08:04:26;10.10;;;4.70;;
48403;SDS011;34202;52.536;6.042;2023-06-10T08:09:27;6.80;;;4.40;;
48403;SDS011;34202;52.536;6.042;2023-06-10T08:14:27;7.00;;;3.40;;
48403;SDS011;34202;52.536;6.042;2023-06-10T08:19:27;8.90;;;4.10;;
48403;SDS011;34202;52.536;6.042;2023-06-10T08:24:28;8.20;;;4.10;;
48403;SDS011;34202;52.536;6.042;2023-06-10T08:29:28;7.60;;;4.10;;
48403;SDS011;34202;52.536;6.042;2023-06-10T08:34:33;6.20;;;4.10;;
48403;SDS011;34202;52.536;6.042;2023-06-10T08:39:35;7.30;;;4.10;;
48403;SDS011;34202;52.536;6.042;2023-06-10T08:44:36;11.70;;;4.30;;
48403;SDS011;34202;52.536;6.042;2023-06-10T08:49:39;8.70;;;4.00;;
48403;SDS011;34202;52.536;6.042;2023-06-10T08:54:57;5.60;;;3.90;;
48403;SDS011;34202;52.536;6.042;2023-06-10T09:00:00;6.30;;;3.60;;
48403;SDS011;34202;52.536;6.042;2023-06-10T09:05:01;5.20;;;3.20;;
48403;SDS011;34202;52.536;6.042;2023-06-10T09:10:02;5.50;;;3.40;;
48403;SDS011;34202;52.536;6.042;2023-06-10T09:15:07;6.20;;;3.50;;
48403;SDS011;34202;52.536;6.042;2023-06-10T09:20:08;4.80;;;3.40;;
48403;SDS011;34202;52.536;6.042;2023-06-10T09:25:10;8.80;;;3.80;;
48403;SDS011;34202;52.536;6.042;2023-06-10T09:30:22;4.40;;;2.90;;
48403;SDS011;34202;52.536;6.042;2023-06-10T09:35:28;7.60;;;3.60;;
48403;SDS011;34202;52.536;6.042;2023-06-10T09:40:30;6.70;;;3.20;;
48403;SDS011;34202;52.536;6.042;2023-06-10T09:45:31;7.10;;;3.30;;
48403;SDS011;34202;52.536;6.042;2023-06-10T09:50:32;8.40;;;3.50;;
48403;SDS011;34202;52.536;6.042;2023-06-10T09:55:35;3.20;;;2.80;;
48403;SDS011;34202;52.536;6.042;2023-06-10T10:00:38;3.40;;;3.10;;
48403;SDS011;34202;52.536;6.042;2023-06-10T10:05:38;7.50;;;3.10;;
48403;SDS011;34202;52.536;6.042;2023-06-10T10:10:38;6.60;;;3.30;;
48403;SDS011;34202;52.536;6.042;2023-06-10T10:15:39;6.80;;;3.60;;
48403;SDS011;34202;52.536;6.042;2023-06-10T10:20:49;9.80;;;3.90;;
48403;SDS011;34202;52.536;6.042;2023-06-10T10:25:53;5.40;;;3.50;;
48403;SDS011;34202;52.536;6.042;2023-06-10T10:30:56;7.40;;;3.40;;
48403;SDS011;34202;52.536;6.042;2023-06-10T10:36:03;6.90;;;3.60;;
48403;SDS011;34202;52.536;6.042;2023-06-10T10:41:05;7.70;;;3.10;;
48403;SDS011;34202;52.536;6.042;2023-06-10T10:46:09;6.60;;;3.70;;
48403;SDS011;34202;52.536;6.042;2023-06-10T10:51:12;6.60;;;3.20;;
48403;SDS011;34202;52.536;6.042;2023-06-10T10:56:16;5.50;;;3.30;;
48403;SDS011;34202;52.536;6.042;2023-06-10T11:01:18;7.10;;;3.50;;
48403;SDS011;34202;52.536;6.042;2023-06-10T11:06:18;8.60;;;3.20;;
48403;SDS011;34202;52.536;6.042;2023-06-10T11:16:28;6.20;;;3.30;;
48403;SDS011;34202;52.536;6.042;2023-06-10T11:21:29;6.60;;;2.90;;
48403;SDS011;34202;52.536;6.042;2023-06-10T11:26:30;5.00;;;3.30;;
48403;SDS011;34202;52.536;6.042;2023-06-10T11:31:41;7.80;;;3.00;;
48403;SDS011;34202;52.536;6.042;2023-06-10T11:36:43;8.40;;;3.60;;
48403;SDS011;34202;52.536;6.042;2023-06-10T11:41:45;6.50;;;3.70;;
48403;SDS011;34202;52.536;6.042;2023-06-10T11:51:14;8.90;;;4.30;;
48403;SDS011;34202;52.536;6.042;2023-06-10T11:56:20;4.10;;;2.90;;
48403;SDS011;34202;52.536;6.042;2023-06-10T12:01:26;4.80;;;3.20;;
48403;SDS011;34202;52.536;6.042;2023-06-10T12:06:27;5.70;;;2.90;;
48403;SDS011;34202;52.536;6.042;2023-06-10T12:11:27;3.90;;;2.90;;
48403;SDS011;34202;52.536;6.042;2023-06-10T12:16:28;6.40;;;3.60;;
48403;SDS011;34202;52.536;6.042;2023-06-10T12:21:29;5.00;;;3.00;;
48403;SDS011;34202;52.536;6.042;2023-06-10T12:26:53;8.60;;;3.20;;
48403;SDS011;34202;52.536;6.042;2023-06-10T12:36:58;4.40;;;3.20;;
48403;SDS011;34202;52.536;6.042;2023-06-10T12:41:58;3.60;;;2.80;;
48403;SDS011;34202;52.536;6.042;2023-06-10T12:47:00;3.80;;;2.80;;
48403;SDS011;34202;52.536;6.042;2023-06-10T12:52:01;6.00;;;3.20;;
48403;SDS011;34202;52.536;6.042;2023-06-10T12:57:02;5.70;;;3.00;;
48403;SDS011;34202;52.536;6.042;2023-06-10T13:02:03;3.40;;;2.80;;
48403;SDS011;34202;52.536;6.042;2023-06-10T13:07:04;5.40;;;3.00;;
48403;SDS011;34202;52.536;6.042;2023-06-10T13:12:05;3.80;;;3.20;;
48403;SDS011;34202;52.536;6.042;2023-06-10T13:17:06;4.00;;;2.50;;
48403;SDS011;34202;52.536;6.042;2023-06-10T13:22:06;5.10;;;3.00;;
48403;SDS011;34202;52.536;6.042;2023-06-10T13:27:07;4.20;;;2.30;;
48403;SDS011;34202;52.536;6.042;2023-06-10T13:32:07;4.30;;;2.90;;
48403;SDS011;34202;52.536;6.042;2023-06-10T13:37:08;6.30;;;2.30;;
48403;SDS011;34202;52.536;6.042;2023-06-10T13:42:08;4.90;;;2.30;;
48403;SDS011;34202;52.536;6.042;2023-06-10T13:47:09;4.40;;;2.50;;
48403;SDS011;34202;52.536;6.042;2023-06-10T13:52:09;3.70;;;2.30;;
48403;SDS011;34202;52.536;6.042;2023-06-10T13:57:10;3.70;;;2.50;;
48403;SDS011;34202;52.536;6.042;2023-06-10T14:02:10;3.20;;;2.50;;
48403;SDS011;34202;52.536;6.042;2023-06-10T14:07:11;3.50;;;2.70;;
48403;SDS011;34202;52.536;6.042;2023-06-10T14:12:11;5.00;;;2.70;;
48403;SDS011;34202;52.536;6.042;2023-06-10T14:17:12;5.60;;;2.30;;
48403;SDS011;34202;52.536;6.042;2023-06-10T14:22:13;3.80;;;2.20;;
48403;SDS011;34202;52.536;6.042;2023-06-10T14:27:13;5.30;;;2.40;;
48403;SDS011;34202;52.536;6.042;2023-06-10T14:32:13;2.40;;;2.20;;
48403;SDS011;34202;52.536;6.042;2023-06-10T14:37:14;3.50;;;2.20;;
48403;SDS011;34202;52.536;6.042;2023-06-10T14:42:14;3.70;;;2.70;;
48403;SDS011;34202;52.536;6.042;2023-06-10T14:47:15;4.80;;;2.90;;
48403;SDS011;34202;52.536;6.042;2023-06-10T14:52:15;4.00;;;2.70;;
48403;SDS011;34202;52.536;6.042;2023-06-10T14:57:16;3.40;;;2.40;;
48403;SDS011;34202;52.536;6.042;2023-06-10T15:02:16;3.80;;;2.20;;
48403;SDS011;34202;52.536;6.042;2023-06-10T15:07:16;6.20;;;3.20;;
48403;SDS011;34202;52.536;6.042;2023-06-10T15:12:17;3.30;;;2.50;;
48403;SDS011;34202;52.536;6.042;2023-06-10T15:17:18;6.90;;;2.10;;
48403;SDS011;34202;52.536;6.042;2023-06-10T15:22:18;3.90;;;3.10;;
48403;SDS011;34202;52.536;6.042;2023-06-10T15:27:19;4.50;;;2.90;;
48403;SDS011;34202;52.536;6.042;2023-06-10T15:32:19;6.80;;;4.20;;
48403;SDS011;34202;52.536;6.042;2023-06-10T15:37:19;7.00;;;2.70;;
48403;SDS011;34202;52.536;6.042;2023-06-10T15:42:21;6.60;;;2.70;;
48403;SDS011;34202;52.536;6.042;2023-06-10T15:47:21;3.10;;;2.30;;
48403;SDS011;34202;52.536;6.042;2023-06-10T15:52:22;3.70;;;2.60;;
48403;SDS011;34202;52.536;6.042;2023-06-10T15:57:22;5.50;;;2.80;;
48403;SDS011;34202;52.536;6.042;2023-06-10T16:02:22;3.30;;;2.30;;
48403;SDS011;34202;52.536;6.042;2023-06-10T16:07:23;5.00;;;2.80;;
48403;SDS011;34202;52.536;6.042;2023-06-10T16:12:23;3.10;;;2.80;;
48403;SDS011;34202;52.536;6.042;2023-06-10T16:17:23;5.40;;;2.90;;
48403;SDS011;34202;52.536;6.042;2023-06-10T16:22:24;5.80;;;2.70;;
48403;SDS011;34202;52.536;6.042;2023-06-10T16:27:24;2.80;;;2.40;;
48403;SDS011;34202;52.536;6.042;2023-06-10T16:32:25;4.20;;;2.70;;
48403;SDS011;34202;52.536;6.042;2023-06-10T16:37:25;4.90;;;2.70;;
48403;SDS011;34202;52.536;6.042;2023-06-10T16:42:26;4.30;;;2.80;;
48403;SDS011;34202;52.536;6.042;2023-06-10T16:47:26;2.80;;;2.20;;
48403;SDS011;34202;52.536;6.042;2023-06-10T16:52:27;3.40;;;2.70;;
48403;SDS011;34202;52.536;6.042;2023-06-10T16:57:27;4.90;;;3.00;;
48403;SDS011;34202;52.536;6.042;2023-06-10T17:02:27;5.80;;;3.30;;
48403;SDS011;34202;52.536;6.042;2023-06-10T17:07:28;4.10;;;3.70;;
48403;SDS011;34202;52.536;6.042;2023-06-10T17:12:30;5.60;;;2.90;;
48403;SDS011;34202;52.536;6.042;2023-06-10T17:17:30;8.20;;;3.20;;
48403;SDS011;34202;52.536;6.042;2023-06-10T17:22:30;4.70;;;3.80;;
48403;SDS011;34202;52.536;6.042;2023-06-10T17:27:31;6.60;;;3.50;;
48403;SDS011;34202;52.536;6.042;2023-06-10T17:32:31;3.40;;;3.10;;
48403;SDS011;34202;52.536;6.042;2023-06-10T17:37:33;4.50;;;2.90;;
48403;SDS011;34202;52.536;6.042;2023-06-10T17:42:33;5.00;;;3.00;;
48403;SDS011;34202;52.536;6.042;2023-06-10T17:47:34;15.10;;;8.10;;
48403;SDS011;34202;52.536;6.042;2023-06-10T17:52:34;4.40;;;3.90;;
48403;SDS011;34202;52.536;6.042;2023-06-10T17:57:35;7.90;;;3.20;;
48403;SDS011;34202;52.536;6.042;2023-06-10T18:02:35;4.30;;;2.80;;
48403;SDS011;34202;52.536;6.042;2023-06-10T18:07:35;4.50;;;2.40;;
48403;SDS011;34202;52.536;6.042;2023-06-10T18:12:36;4.60;;;2.70;;
48403;SDS011;34202;52.536;6.042;2023-06-10T18:17:36;4.30;;;2.80;;
48403;SDS011;34202;52.536;6.042;2023-06-10T18:22:37;4.50;;;2.60;;
48403;SDS011;34202;52.536;6.042;2023-06-10T18:27:37;4.20;;;2.40;;
48403;SDS011;34202;52.536;6.042;2023-06-10T18:32:37;5.40;;;2.50;;
48403;SDS011;34202;52.536;6.042;2023-06-10T18:37:38;4.10;;;2.50;;
48403;SDS011;34202;52.536;6.042;2023-06-10T18:42:38;4.90;;;3.10;;
48403;SDS011;34202;52.536;6.042;2023-06-10T18:47:39;5.20;;;2.20;;
48403;SDS011;34202;52.536;6.042;2023-06-10T18:52:39;2.10;;;1.60;;
48403;SDS011;34202;52.536;6.042;2023-06-10T18:57:39;4.60;;;2.00;;
48403;SDS011;34202;52.536;6.042;2023-06-10T19:02:40;4.00;;;2.70;;
48403;SDS011;34202;52.536;6.042;2023-06-10T19:07:40;3.70;;;2.30;;
48403;SDS011;34202;52.536;6.042;2023-06-10T19:12:41;2.40;;;2.20;;
48403;SDS011;34202;52.536;6.042;2023-06-10T19:17:41;5.20;;;2.50;;
48403;SDS011;34202;52.536;6.042;2023-06-10T19:22:41;3.00;;;2.50;;
48403;SDS011;34202;52.536;6.042;2023-06-10T19:27:43;4.00;;;2.50;;
48403;SDS011;34202;52.536;6.042;2023-06-10T19:32:43;5.50;;;2.10;;
48403;SDS011;34202;52.536;6.042;2023-06-10T19:37:44;6.00;;;2.50;;
48403;SDS011;34202;52.536;6.042;2023-06-10T19:42:45;6.60;;;2.90;;
48403;SDS011;34202;52.536;6.042;2023-06-10T19:47:46;2.40;;;1.90;;
48403;SDS011;34202;52.536;6.042;2023-06-10T19:52:46;3.80;;;2.20;;
48403;SDS011;34202;52.536;6.042;2023-06-10T19:57:47;4.50;;;2.70;;
48403;SDS011;34202;52.536;6.042;2023-06-10T20:02:48;3.50;;;2.30;;
48403;SDS011;34202;52.536;6.042;2023-06-10T20:07:48;4.90;;;2.50;;
48403;SDS011;34202;52.536;6.042;2023-06-10T20:12:48;5.80;;;2.30;;
48403;SDS011;34202;52.536;6.042;2023-06-10T20:17:49;3.20;;;2.00;;
48403;SDS011;34202;52.536;6.042;2023-06-10T20:22:51;3.20;;;2.40;;
48403;SDS011;34202;52.536;6.042;2023-06-10T20:27:52;7.10;;;2.40;;
48403;SDS011;34202;52.536;6.042;2023-06-10T20:32:52;4.30;;;2.60;;
48403;SDS011;34202;52.536;6.042;2023-06-10T20:37:52;4.60;;;2.20;;
48403;SDS011;34202;52.536;6.042;2023-06-10T20:42:53;3.50;;;2.20;;
48403;SDS011;34202;52.536;6.042;2023-06-10T20:47:53;3.50;;;2.90;;
48403;SDS011;34202;52.536;6.042;2023-06-10T20:52:53;11.00;;;2.50;;
48403;SDS011;34202;52.536;6.042;2023-06-10T20:57:54;9.50;;;2.00;;
48403;SDS011;34202;52.536;6.042;2023-06-10T21:02:58;4.80;;;2.40;;
48403;SDS011;34202;52.536;6.042;2023-06-10T21:07:58;9.40;;;3.00;;
48403;SDS011;34202;52.536;6.042;2023-06-10T21:12:59;3.20;;;2.50;;
48403;SDS011;34202;52.536;6.042;2023-06-10T21:17:59;3.80;;;2.50;;
48403;SDS011;34202;52.536;6.042;2023-06-10T21:23:00;4.10;;;2.70;;
48403;SDS011;34202;52.536;6.042;2023-06-10T21:28:00;3.00;;;2.30;;
48403;SDS011;34202;52.536;6.042;2023-06-10T21:33:00;4.90;;;2.60;;
48403;SDS011;34202;52.536;6.042;2023-06-10T21:38:01;6.10;;;3.30;;
48403;SDS011;34202;52.536;6.042;2023-06-10T21:43:01;5.20;;;2.90;;
48403;SDS011;34202;52.536;6.042;2023-06-10T21:48:02;3.80;;;2.50;;
48403;SDS011;34202;52.536;6.042;2023-06-10T21:53:02;4.70;;;3.10;;
48403;SDS011;34202;52.536;6.042;2023-06-10T21:58:02;9.20;;;3.40;;
48403;SDS011;34202;52.536;6.042;2023-06-10T22:03:03;4.70;;;2.30;;
48403;SDS011;34202;52.536;6.042;2023-06-10T22:08:03;7.00;;;3.00;;
48403;SDS011;34202;52.536;6.042;2023-06-10T22:13:03;8.60;;;3.50;;
48403;SDS011;34202;52.536;6.042;2023-06-10T22:18:07;5.20;;;2.80;;
48403;SDS011;34202;52.536;6.042;2023-06-10T22:23:08;6.00;;;2.80;;
48403;SDS011;34202;52.536;6.042;2023-06-10T22:28:08;7.60;;;2.90;;
48403;SDS011;34202;52.536;6.042;2023-06-10T22:33:09;7.70;;;3.50;;
48403;SDS011;34202;52.536;6.042;2023-06-10T22:38:10;3.80;;;2.50;;
48403;SDS011;34202;52.536;6.042;2023-06-10T22:43:11;4.90;;;2.40;;
48403;SDS011;34202;52.536;6.042;2023-06-10T22:48:11;8.30;;;3.70;;
48403;SDS011;34202;52.536;6.042;2023-06-10T22:53:12;3.50;;;2.80;;
48403;SDS011;34202;52.536;6.042;2023-06-10T22:58:12;7.90;;;2.80;;
48403;SDS011;34202;52.536;6.042;2023-06-10T23:03:12;6.20;;;2.50;;
48403;SDS011;34202;52.536;6.042;2023-06-10T23:08:13;6.10;;;2.50;;
48403;SDS011;34202;52.536;6.042;2023-06-10T23:13:13;5.40;;;2.70;;
48403;SDS011;34202;52.536;6.042;2023-06-10T23:18:14;5.80;;;3.00;;
48403;SDS011;34202;52.536;6.042;2023-06-10T23:23:14;9.30;;;3.70;;
48403;SDS011;34202;52.536;6.042;2023-06-10T23:28:14;11.40;;;3.30;;
48403;SDS011;34202;52.536;6.042;2023-06-10T23:33:15;6.80;;;2.60;;
48403;SDS011;34202;52.536;6.042;2023-06-10T23:38:17;7.50;;;5.30;;
48403;SDS011;34202;52.536;6.042;2023-06-10T23:43:18;7.80;;;3.00;;
48403;SDS011;34202;52.536;6.042;2023-06-10T23:48:18;5.70;;;3.20;;
48403;SDS011;34202;52.536;6.042;2023-06-10T23:53:19;6.60;;;3.00;;
48403;SDS011;34202;52.536;6.042;2023-06-10T23:58:19;7.50;;;3.30;;
